Time;durP1;ratioP1;P1;durP2;ratioP2;P2;SDS_P1;SDS_P2;PMS_P1;PMS_P2;Temp;Humidity;BMP_temperature;BMP_pressure;BME280_temperature;BME280_humidity;BME280_pressure;Samples;Min_cycle;Max_cycle;Signal;HPM_P1;HPM_P2
2021/09/19 00:01:42;;;;;;;5.50;3.63;;;;;;;13.13;84.61;98572.38;5054557;28;20028;-72
2021/09/19 00:04:08;;;;;;;4.93;3.63;;;;;;;13.16;83.98;98571.91;5041776;28;20102;-72
2021/09/19 00:06:33;;;;;;;7.88;3.78;;;;;;;13.13;84.05;98562.34;5049159;28;20057;-72
2021/09/19 00:08:58;;;;;;;6.15;4.05;;;;;;;13.09;83.92;98549.41;5053685;28;20056;-72
2021/09/19 00:11:24;;;;;;;6.10;3.88;;;;;;;13.15;84.60;98564.81;5054055;28;20364;-73
2021/09/19 00:13:49;;;;;;;4.97;3.47;;;;;;;13.07;84.51;98563.25;5032499;28;20045;-72
2021/09/19 00:16:15;;;;;;;7.20;3.95;;;;;;;13.14;83.45;98549.56;5041867;28;20025;-72
2021/09/19 00:18:40;;;;;;;4.60;3.55;;;;;;;13.23;84.15;98553.66;5053885;28;20024;-72
2021/09/19 00:21:05;;;;;;;5.40;3.75;;;;;;;13.13;84.02;98553.34;5041506;28;20486;-72
2021/09/19 00:23:31;;;;;;;5.85;3.80;;;;;;;13.04;83.04;98532.97;5051835;28;20035;-72
2021/09/19 00:25:56;;;;;;;4.25;3.47;;;;;;;13.20;83.24;98554.09;5032504;28;20064;-72
2021/09/19 00:28:22;;;;;;;6.60;3.47;;;;;;;13.14;83.02;98542.25;5016734;28;20395;-72
2021/09/19 00:30:47;;;;;;;4.72;3.33;;;;;;;13.16;83.19;98542.84;5034246;28;20056;-72
2021/09/19 00:33:12;;;;;;;4.75;3.35;;;;;;;13.09;83.27;98547.53;5034128;28;20075;-72
2021/09/19 00:35:38;;;;;;;3.65;3.15;;;;;;;13.03;83.91;98542.19;5038139;28;20037;-72
2021/09/19 00:38:03;;;;;;;4.82;3.30;;;;;;;12.97;83.82;98543.06;5051208;28;20032;-72
2021/09/19 00:40:28;;;;;;;8.23;3.95;;;;;;;12.88;83.19;98510.78;5036894;28;20444;-72
2021/09/19 00:42:54;;;;;;;5.93;3.72;;;;;;;12.99;84.18;98549.94;5033756;28;20412;-72
2021/09/19 00:45:22;;;;;;;5.60;3.67;;;;;;;12.94;84.62;98541.63;5048638;28;20075;-72
2021/09/19 00:47:48;;;;;;;6.88;4.35;;;;;;;12.82;85.70;98532.59;5050360;28;20025;-72
2021/09/19 00:50:17;;;;;;;5.05;3.95;;;;;;;12.68;86.41;98534.59;5052895;28;20446;-72
2021/09/19 00:52:45;;;;;;;7.15;4.00;;;;;;;12.52;87.32;98532.44;5039045;28;20029;-72
2021/09/19 00:55:11;;;;;;;5.78;3.90;;;;;;;12.40;88.78;98529.63;5046675;28;20025;-72
2021/09/19 00:57:39;;;;;;;7.40;4.15;;;;;;;12.36;88.36;98537.38;5044761;28;20029;-72
2021/09/19 01:00:05;;;;;;;6.68;4.20;;;;;;;12.31;88.70;98523.63;5045606;28;20024;-72
2021/09/19 01:02:32;;;;;;;5.05;3.63;;;;;;;12.46;87.73;98513.28;5052137;28;20075;-71
2021/09/19 01:04:57;;;;;;;4.80;3.47;;;;;;;12.58;86.38;98516.13;5050649;28;20074;-71
2021/09/19 01:07:23;;;;;;;6.30;4.13;;;;;;;12.63;86.35;98518.16;5033230;28;20440;-71
2021/09/19 01:09:50;;;;;;;5.80;3.50;;;;;;;12.58;86.36;98518.00;5039394;28;20032;-72
2021/09/19 01:12:20;;;;;;;4.40;3.33;;;;;;;12.56;86.49;98510.06;5042914;28;20021;-72
2021/09/19 01:14:47;;;;;;;6.18;3.65;;;;;;;12.61;86.52;98514.84;5051005;28;20108;-72
2021/09/19 01:17:13;;;;;;;5.32;3.80;;;;;;;12.60;86.59;98500.44;5051393;28;20023;-72
2021/09/19 01:19:40;;;;;;;6.50;4.00;;;;;;;12.51;87.35;98515.34;5046012;28;20119;-72
2021/09/19 01:22:06;;;;;;;5.60;3.42;;;;;;;12.38;87.68;98515.47;5054273;28;20052;-72
2021/09/19 01:24:32;;;;;;;5.03;3.80;;;;;;;12.26;88.02;98507.19;5043433;28;20597;-72
2021/09/19 01:26:57;;;;;;;4.28;3.45;;;;;;;12.11;88.66;98510.25;5050809;28;20064;-72
2021/09/19 01:29:22;;;;;;;4.38;3.08;;;;;;;11.90;89.21;98491.66;5046615;28;20045;-72
2021/09/19 01:31:51;;;;;;;4.10;3.35;;;;;;;11.92;89.35;98512.06;5050991;28;20108;-73
2021/09/19 01:34:17;;;;;;;7.55;3.60;;;;;;;11.86;89.83;98507.50;5044258;28;20099;-72
2021/09/19 01:36:42;;;;;;;6.50;3.78;;;;;;;11.79;90.90;98506.72;5037771;28;20034;-72
2021/09/19 01:39:09;;;;;;;5.63;3.45;;;;;;;11.67;90.79;98501.13;5034735;28;20041;-72
2021/09/19 01:41:35;;;;;;;4.53;3.33;;;;;;;11.67;90.76;98505.72;5045729;28;20099;-72
2021/09/19 01:44:02;;;;;;;7.78;4.13;;;;;;;11.67;91.10;98505.72;5031807;28;20479;-72
2021/09/19 01:46:28;;;;;;;6.13;3.72;;;;;;;11.68;91.82;98499.25;5045247;28;20430;-72
2021/09/19 01:48:53;;;;;;;4.72;3.28;;;;;;;11.81;91.00;98494.56;5051120;28;20021;-71
2021/09/19 01:51:18;;;;;;;4.07;3.42;;;;;;;11.76;90.49;98490.84;5030691;28;20510;-72
2021/09/19 01:53:44;;;;;;;4.60;3.40;;;;;;;11.59;91.28;98485.13;5043211;28;20033;-72
2021/09/19 01:56:09;;;;;;;5.90;3.53;;;;;;;11.68;91.22;98478.41;5034020;28;20025;-73
2021/09/19 01:58:50;;;;;;;8.77;3.85;;;;;;;11.61;92.13;98475.75;5039068;28;20021;-72
2021/09/19 02:01:17;;;;;;;5.97;3.30;;;;;;;11.53;91.29;98467.06;5036613;28;20391;-72
2021/09/19 02:03:42;;;;;;;5.72;3.75;;;;;;;11.59;92.02;98485.97;5037213;28;20304;-72
2021/09/19 02:06:09;;;;;;;9.13;3.85;;;;;;;11.69;91.90;98473.84;5046462;28;20179;-72
2021/09/19 02:08:36;;;;;;;5.20;3.45;;;;;;;11.65;91.70;98472.59;5054236;28;20395;-72
2021/09/19 02:11:04;;;;;;;5.28;3.53;;;;;;;11.73;91.72;98478.56;5056156;28;20123;-72
2021/09/19 02:13:30;;;;;;;5.57;4.10;;;;;;;11.61;91.21;98473.03;5050277;28;20029;-72
2021/09/19 02:15:55;;;;;;;9.20;4.30;;;;;;;11.61;92.25;98466.78;5041841;28;20025;-72
2021/09/19 02:18:21;;;;;;;6.40;3.92;;;;;;;11.43;92.89;98464.81;5054959;28;20025;-72
2021/09/19 02:20:46;;;;;;;5.45;4.00;;;;;;;11.24;93.42;98461.16;5042130;28;20116;-72
2021/09/19 02:23:11;;;;;;;8.63;4.10;;;;;;;11.03;93.58;98437.94;5036093;28;20052;-72
2021/09/19 02:25:36;;;;;;;5.75;4.20;;;;;;;11.07;94.77;98462.69;5036178;28;20060;-72
2021/09/19 02:28:02;;;;;;;6.38;4.28;;;;;;;10.96;95.67;98456.09;5047984;28;20379;-72
2021/09/19 02:30:27;;;;;;;6.00;4.30;;;;;;;10.83;96.13;98448.84;5049393;28;20037;-72
2021/09/19 02:32:52;;;;;;;5.63;4.20;;;;;;;10.83;95.89;98456.97;5060056;28;20029;-72
2021/09/19 02:35:18;;;;;;;7.82;4.10;;;;;;;10.79;95.90;98458.41;5045445;28;20450;-72
2021/09/19 02:37:47;;;;;;;5.80;4.05;;;;;;;10.60;96.85;98440.38;5041868;28;20029;-72
2021/09/19 02:40:14;;;;;;;6.15;3.92;;;;;;;10.59;97.99;98441.44;5055292;28;20071;-71
2021/09/19 02:42:39;;;;;;;8.02;4.13;;;;;;;10.63;98.07;98445.38;5045984;28;20079;-72
2021/09/19 02:45:07;;;;;;;5.25;4.00;;;;;;;10.56;97.22;98447.25;5044640;28;20068;-72
2021/09/19 02:47:32;;;;;;;7.28;4.00;;;;;;;10.49;98.17;98447.28;5035358;28;20489;-72
2021/09/19 02:49:57;;;;;;;6.32;4.22;;;;;;;10.49;99.39;98447.28;5040530;28;20037;-72
2021/09/19 02:52:23;;;;;;;7.07;3.95;;;;;;;10.44;99.08;98445.19;5037001;28;20033;-72
2021/09/19 02:54:48;;;;;;;9.15;4.43;;;;;;;10.40;99.83;98446.69;5036753;28;20033;-72
2021/09/19 02:57:13;;;;;;;7.05;4.60;;;;;;;10.36;100.00;98442.72;5036038;28;20071;-73
2021/09/19 02:59:39;;;;;;;7.20;4.57;;;;;;;10.24;100.00;98434.41;5036886;28;20033;-72
2021/09/19 03:02:06;;;;;;;6.60;4.90;;;;;;;10.26;100.00;98448.53;5045556;28;20033;-72
2021/09/19 03:04:32;;;;;;;4.88;4.22;;;;;;;10.18;100.00;98440.63;5044602;28;20151;-72
2021/09/19 03:06:57;;;;;;;5.18;4.03;;;;;;;10.20;100.00;98433.16;5042596;28;20104;-71
2021/09/19 03:09:22;;;;;;;8.80;4.45;;;;;;;10.20;100.00;98440.44;5054145;28;20021;-72
2021/09/19 03:11:47;;;;;;;6.65;3.80;;;;;;;10.13;100.00;98434.19;5053146;28;20386;-72
2021/09/19 03:14:13;;;;;;;8.52;4.38;;;;;;;10.10;100.00;98432.75;5040739;28;20030;-72
2021/09/19 03:16:38;;;;;;;6.00;4.53;;;;;;;9.87;100.00;98406.97;5041176;28;20032;-72
2021/09/19 03:19:03;;;;;;;9.38;4.70;;;;;;;10.03;100.00;98424.66;5046489;28;20467;-72
2021/09/19 03:21:29;;;;;;;5.93;4.57;;;;;;;9.89;100.00;98395.97;5029144;28;20052;-72
2021/09/19 03:23:54;;;;;;;7.45;4.20;;;;;;;10.07;100.00;98423.19;5050618;28;20513;-72
2021/09/19 03:26:19;;;;;;;5.82;4.18;;;;;;;10.09;100.00;98410.28;5054370;28;20021;-72
2021/09/19 03:28:45;;;;;;;6.75;4.15;;;;;;;10.04;100.00;98417.38;5053427;28;20032;-72
2021/09/19 03:31:10;;;;;;;5.80;4.07;;;;;;;9.96;100.00;98418.41;5045562;28;20151;-72
2021/09/19 03:33:35;;;;;;;5.57;3.95;;;;;;;9.85;100.00;98414.47;5054282;28;20025;-72
2021/09/19 03:36:01;;;;;;;6.70;4.15;;;;;;;9.85;100.00;98414.47;5043492;28;20038;-72
2021/09/19 03:38:26;;;;;;;6.20;4.30;;;;;;;9.86;100.00;98416.13;5034842;28;20116;-72
2021/09/19 03:40:51;;;;;;;8.18;4.78;;;;;;;9.86;100.00;98421.53;5044442;28;20025;-72
2021/09/19 03:43:17;;;;;;;8.45;5.07;;;;;;;9.69;100.00;98409.47;5034658;28;20104;-72
2021/09/19 03:45:42;;;;;;;6.47;4.75;;;;;;;9.66;100.00;98423.38;5043988;28;20067;-72
2021/09/19 03:48:08;;;;;;;6.72;4.65;;;;;;;9.59;100.00;98409.91;5050643;28;20452;-72
2021/09/19 03:50:34;;;;;;;7.68;4.55;;;;;;;9.56;100.00;98406.75;5046957;28;20108;-72
2021/09/19 03:53:00;;;;;;;10.82;4.50;;;;;;;9.59;100.00;98414.47;5055338;28;20052;-72
2021/09/19 03:55:26;;;;;;;7.40;5.20;;;;;;;9.52;100.00;98424.44;5054073;28;20033;-72
2021/09/19 03:57:52;;;;;;;6.13;4.28;;;;;;;9.36;100.00;98410.28;5053778;28;20086;-72
2021/09/19 04:00:17;;;;;;;9.63;4.80;;;;;;;9.37;100.00;98403.00;5046729;28;20025;-72
2021/09/19 04:02:43;;;;;;;7.88;4.57;;;;;;;9.44;100.00;98423.56;5046679;28;20036;-72
2021/09/19 04:05:10;;;;;;;7.18;4.93;;;;;;;9.42;100.00;98431.03;5049137;28;20033;-72
2021/09/19 04:07:38;;;;;;;6.30;4.38;;;;;;;9.48;100.00;98432.09;5038636;28;20021;-72
2021/09/19 04:10:05;;;;;;;7.05;4.63;;;;;;;9.22;100.00;98403.16;5060374;28;20028;-72
2021/09/19 04:12:31;;;;;;;9.27;4.85;;;;;;;9.57;100.00;98435.44;5059724;28;20601;-72
2021/09/19 04:14:57;;;;;;;6.20;4.57;;;;;;;9.61;100.00;98431.28;5074881;28;20017;-72
2021/09/19 04:17:22;;;;;;;9.45;5.03;;;;;;;9.42;100.00;98436.44;5072636;28;20028;-73
2021/09/19 04:19:47;;;;;;;9.02;5.07;;;;;;;9.32;100.00;98433.31;5046771;28;20029;-72
2021/09/19 04:22:13;;;;;;;7.00;4.13;;;;;;;9.25;100.00;98431.63;5055408;28;20020;-73
2021/09/19 04:24:38;;;;;;;6.38;5.03;;;;;;;9.34;100.00;98435.81;5071719;28;20093;-72
2021/09/19 04:27:03;;;;;;;10.70;5.30;;;;;;;9.15;100.00;98430.16;5060697;28;20037;-73
2021/09/19 04:29:29;;;;;;;6.72;4.50;;;;;;;9.17;100.00;98435.38;5068277;28;20138;-72
2021/09/19 04:31:54;;;;;;;7.68;4.72;;;;;;;9.16;100.00;98445.31;5054532;28;20033;-72
2021/09/19 04:34:19;;;;;;;6.22;4.45;;;;;;;9.16;100.00;98445.31;5072145;28;20036;-72
2021/09/19 04:36:44;;;;;;;6.97;5.03;;;;;;;9.18;100.00;98440.56;5072003;28;20024;-72
2021/09/19 04:39:10;;;;;;;7.25;5.00;;;;;;;9.15;100.00;98438.25;5071359;28;20025;-72
2021/09/19 04:41:35;;;;;;;8.55;5.85;;;;;;;9.12;100.00;98448.63;5061942;28;20510;-72
2021/09/19 04:44:00;;;;;;;6.50;4.80;;;;;;;9.08;100.00;98445.50;5066302;28;20028;-73
2021/09/19 04:46:26;;;;;;;8.38;5.70;;;;;;;9.02;100.00;98440.09;5056972;28;20028;-72
2021/09/19 04:48:54;;;;;;;7.55;5.07;;;;;;;9.07;100.00;98445.72;5034523;28;20043;-73
2021/09/19 04:51:20;;;;;;;9.45;5.40;;;;;;;8.90;100.00;98427.16;5070161;28;20037;-72
2021/09/19 04:53:45;;;;;;;7.82;4.78;;;;;;;9.05;100.00;98447.78;5071352;28;20426;-72
2021/09/19 04:56:10;;;;;;;6.78;4.78;;;;;;;9.06;100.00;98454.81;5050528;28;20049;-72
2021/09/19 04:58:35;;;;;;;7.85;4.90;;;;;;;9.06;100.00;98454.81;5068145;28;20046;-72
2021/09/19 05:01:01;;;;;;;8.63;4.57;;;;;;;9.13;100.00;98470.00;5054892;28;20030;-72
2021/09/19 05:03:26;;;;;;;6.03;4.20;;;;;;;9.12;100.00;98472.94;5061733;28;20025;-72
2021/09/19 05:05:51;;;;;;;9.88;5.07;;;;;;;9.02;100.00;98445.50;5070444;28;20032;-72
2021/09/19 05:08:17;;;;;;;5.93;4.50;;;;;;;9.13;100.00;98471.88;5070572;28;20039;-72
2021/09/19 05:10:43;;;;;;;12.40;4.35;;;;;;;8.95;100.00;98435.47;5072612;28;20028;-73
2021/09/19 05:13:08;;;;;;;6.00;4.45;;;;;;;9.13;100.00;98463.78;5050595;28;20056;-72
2021/09/19 05:15:33;;;;;;;7.28;4.50;;;;;;;9.06;100.00;98468.31;5069271;28;20017;-73
2021/09/19 05:17:59;;;;;;;7.13;4.88;;;;;;;9.10;100.00;98472.28;5069654;28;20025;-73
2021/09/19 05:20:24;;;;;;;6.32;4.18;;;;;;;9.22;100.00;98465.25;5051596;28;20040;-73
2021/09/19 05:22:49;;;;;;;5.97;4.53;;;;;;;9.18;100.00;98472.13;5049500;28;20021;-72
2021/09/19 05:25:17;;;;;;;6.45;4.28;;;;;;;9.28;100.00;98477.97;5060223;28;20039;-72
2021/09/19 05:27:42;;;;;;;7.40;4.55;;;;;;;9.40;100.00;98476.31;5067780;28;20108;-72
2021/09/19 05:30:08;;;;;;;8.55;4.00;;;;;;;9.40;100.00;98472.78;5061272;28;20032;-72
2021/09/19 05:32:33;;;;;;;5.22;4.18;;;;;;;9.53;100.00;98466.59;5070384;28;20077;-72
2021/09/19 05:34:58;;;;;;;5.20;4.10;;;;;;;9.53;100.00;98453.91;5073808;28;20025;-72
2021/09/19 05:37:24;;;;;;;5.03;3.78;;;;;;;10.42;97.93;98468.09;5074523;28;20518;-72
2021/09/19 05:39:49;;;;;;;5.05;3.72;;;;;;;11.96;87.39;98469.91;5074965;28;20025;-72
2021/09/19 05:42:14;;;;;;;5.57;3.63;;;;;;;13.44;78.01;98465.44;5074720;28;20036;-72
2021/09/19 05:44:40;;;;;;;3.95;2.80;;;;;;;14.11;75.17;98470.69;5058364;28;20033;-72
2021/09/19 05:47:05;;;;;;;3.95;2.55;;;;;;;14.90;71.42;98478.53;5056325;28;20025;-72
2021/09/19 05:49:30;;;;;;;3.55;2.65;;;;;;;15.57;66.86;98478.00;5073587;28;20033;-72
2021/09/19 05:51:56;;;;;;;3.40;2.70;;;;;;;16.14;64.04;98455.28;5074247;28;20024;-72
2021/09/19 05:54:21;;;;;;;3.85;2.65;;;;;;;16.83;62.31;98472.19;5057584;28;20037;-73
2021/09/19 05:56:46;;;;;;;3.88;2.72;;;;;;;16.82;61.04;98462.34;5056724;28;20029;-72
2021/09/19 05:59:11;;;;;;;3.78;2.65;;;;;;;17.75;59.03;98472.47;5074861;28;20029;-72
2021/09/19 06:01:37;;;;;;;5.28;2.67;;;;;;;18.31;58.12;98473.03;5058714;28;20045;-72
2021/09/19 06:04:02;;;;;;;2.83;2.08;;;;;;;18.58;56.36;98472.13;5060217;28;20023;-72
2021/09/19 06:06:27;;;;;;;4.38;2.90;;;;;;;18.52;56.86;98470.41;5058595;28;20078;-72
2021/09/19 06:08:53;;;;;;;3.45;2.65;;;;;;;18.78;55.29;98457.72;5056164;28;20159;-73
2021/09/19 06:11:18;;;;;;;4.05;2.53;;;;;;;19.55;53.97;98463.56;5023111;28;20038;-72
2021/09/19 06:13:43;;;;;;;2.85;2.35;;;;;;;19.95;53.13;98457.34;5049857;28;20094;-72
2021/09/19 06:19:37;;;;;;;5.43;1.77;;;;;;;20.65;49.93;98462.31;6181493;22;20067;-77
2021/09/19 06:22:03;;;;;;;4.25;2.10;;;;;;;20.97;48.02;98451.78;5072648;28;20075;-78
2021/09/19 06:24:30;;;;;;;4.45;1.90;;;;;;;21.06;48.54;98431.94;5058712;28;20107;-75
2021/09/19 06:26:57;;;;;;;2.75;1.73;;;;;;;21.94;47.44;98449.66;5055312;28;20052;-76
2021/09/19 06:29:22;;;;;;;3.65;1.90;;;;;;;22.51;45.30;98445.38;5055294;28;20079;-76
2021/09/19 06:31:47;;;;;;;2.40;1.95;;;;;;;23.50;43.79;98436.53;5070520;28;20028;-74
2021/09/19 06:34:13;;;;;;;2.45;1.70;;;;;;;23.62;42.87;98433.31;5071262;28;20034;-76
2021/09/19 06:36:38;;;;;;;2.72;2.00;;;;;;;23.07;43.41;98446.75;5074699;28;20021;-78
2021/09/19 06:39:04;;;;;;;5.93;2.00;;;;;;;22.06;46.12;98445.44;5074631;28;20103;-77
2021/09/19 06:41:29;;;;;;;2.67;2.00;;;;;;;22.53;44.89;98432.94;5074400;28;20028;-76
2021/09/19 06:43:54;;;;;;;5.03;1.80;;;;;;;22.44;45.11;98420.06;5068358;28;20032;-76
2021/09/19 06:46:20;;;;;;;2.70;1.65;;;;;;;23.27;44.23;98440.97;5069212;28;20016;-77
2021/09/19 06:48:45;;;;;;;3.88;2.10;;;;;;;23.43;43.38;98441.59;5074906;28;20074;-76
2021/09/19 06:51:10;;;;;;;3.67;1.80;;;;;;;23.40;43.42;98429.19;5073690;28;20016;-78
2021/09/19 06:53:37;;;;;;;3.78;1.75;;;;;;;24.27;42.34;98441.72;5055128;28;20048;-77
2021/09/19 06:56:06;;;;;;;2.63;2.03;;;;;;;25.09;40.60;98429.19;5073957;28;20032;-76
2021/09/19 06:58:31;;;;;;;3.08;1.77;;;;;;;25.49;40.07;98425.88;5056152;28;20077;-77
2021/09/19 07:00:57;;;;;;;5.28;1.83;;;;;;;25.86;38.34;98410.94;5055899;28;20485;-77
2021/09/19 07:03:22;;;;;;;3.72;1.90;;;;;;;26.32;38.46;98443.09;5073918;28;20436;-77
2021/09/19 07:05:48;;;;;;;3.05;2.00;;;;;;;26.98;38.01;98448.03;5074027;28;20074;-77
2021/09/19 07:08:13;;;;;;;2.80;1.63;;;;;;;27.01;37.38;98425.19;5074100;28;20107;-76
2021/09/19 07:10:38;;;;;;;2.50;1.75;;;;;;;27.09;37.27;98432.72;5073675;28;20024;-76
2021/09/19 07:13:04;;;;;;;2.15;1.77;;;;;;;27.28;36.42;98438.88;5074073;28;20389;-75
2021/09/19 07:15:29;;;;;;;1.60;1.50;;;;;;;27.81;35.85;98431.47;5056103;28;20379;-76
2021/09/19 07:17:54;;;;;;;1.60;1.40;;;;;;;28.97;34.26;98435.38;5073609;28;20441;-77
2021/09/19 07:20:20;;;;;;;3.75;1.58;;;;;;;29.37;32.59;98443.41;5073999;28;20025;-77
2021/09/19 07:22:46;;;;;;;1.77;1.40;;;;;;;29.78;32.57;98423.16;5073798;28;20033;-77
2021/09/19 07:25:12;;;;;;;3.35;1.55;;;;;;;30.15;32.30;98432.53;5073709;28;20016;-76
2021/09/19 07:27:38;;;;;;;1.80;1.40;;;;;;;30.11;32.19;98420.44;5055786;28;20089;-76
2021/09/19 07:30:04;;;;;;;2.65;1.48;;;;;;;29.94;32.51;98442.88;5073280;28;20028;-76
2021/09/19 07:32:31;;;;;;;3.60;1.40;;;;;;;30.31;32.22;98421.59;5071895;28;20025;-76
2021/09/19 07:34:57;;;;;;;2.20;1.60;;;;;;;30.22;32.15;98428.38;5056233;28;20036;-69
2021/09/19 07:37:23;;;;;;;2.00;1.50;;;;;;;29.87;32.34;98443.44;5070824;28;20036;-69
2021/09/19 07:39:48;;;;;;;2.15;1.40;;;;;;;31.11;31.20;98441.91;5071159;28;20028;-69
2021/09/19 07:42:14;;;;;;;3.03;1.55;;;;;;;31.46;30.18;98435.88;5072396;28;20064;-70
2021/09/19 07:44:40;;;;;;;4.57;1.58;;;;;;;31.28;29.96;98446.47;5072310;28;20486;-69
2021/09/19 07:47:05;;;;;;;2.28;1.67;;;;;;;31.14;30.49;98424.44;5073264;28;20020;-76
2021/09/19 07:49:31;;;;;;;1.80;1.40;;;;;;;30.65;30.88;98453.09;5059820;28;20035;-77
2021/09/19 07:51:57;;;;;;;1.58;1.30;;;;;;;31.38;29.84;98454.41;5074111;28;20086;-77
2021/09/19 07:54:23;;;;;;;2.17;1.58;;;;;;;31.76;29.44;98451.22;5055648;28;20366;-76
2021/09/19 07:56:48;;;;;;;2.95;1.30;;;;;;;31.86;29.63;98452.72;5074688;28;20028;-77
2021/09/19 07:59:13;;;;;;;2.75;1.40;;;;;;;31.87;28.50;98443.16;5073245;28;20082;-76
2021/09/19 08:01:39;;;;;;;2.83;1.50;;;;;;;29.63;31.73;98443.25;5074429;28;20466;-76
2021/09/19 08:04:05;;;;;;;3.65;1.55;;;;;;;30.86;30.99;98433.50;5073032;28;20033;-75
2021/09/19 08:06:30;;;;;;;2.42;1.10;;;;;;;31.31;30.19;98440.16;5073159;28;20536;-71
2021/09/19 08:08:55;;;;;;;1.85;1.25;;;;;;;32.73;28.56;98448.47;5072087;28;20036;-71
2021/09/19 08:11:21;;;;;;;4.53;1.50;;;;;;;32.06;29.19;98446.16;5073234;28;20071;-78
2021/09/19 08:13:47;;;;;;;2.67;1.40;;;;;;;30.63;31.06;98451.81;5074074;28;20020;-75
2021/09/19 08:16:14;;;;;;;1.60;1.50;;;;;;;31.44;30.10;98456.63;5072751;28;20385;-76
2021/09/19 08:18:40;;;;;;;1.75;1.52;;;;;;;31.88;28.84;98439.19;5054177;28;20024;-76
2021/09/19 08:21:05;;;;;;;1.45;1.25;;;;;;;32.27;29.01;98451.56;5072457;28;20477;-76
2021/09/19 08:23:31;;;;;;;2.28;1.40;;;;;;;32.11;29.43;98455.47;5073968;28;20538;-77
2021/09/19 08:25:56;;;;;;;2.00;1.50;;;;;;;32.52;29.16;98445.88;5073632;28;20059;-77
2021/09/19 08:28:22;;;;;;;1.90;1.50;;;;;;;30.61;31.34;98468.09;5055577;28;20492;-78
2021/09/19 08:30:47;;;;;;;2.45;1.80;;;;;;;30.73;30.57;98470.91;5070358;28;20029;-70
2021/09/19 08:33:13;;;;;;;1.95;1.67;;;;;;;31.25;30.75;98475.09;5067441;28;20028;-71
2021/09/19 08:35:39;;;;;;;1.85;1.50;;;;;;;31.74;29.40;98475.94;5072510;28;20050;-71
2021/09/19 08:38:04;;;;;;;5.63;1.70;;;;;;;31.18;30.78;98470.91;5071747;28;20043;-73
2021/09/19 08:40:30;;;;;;;3.83;1.80;;;;;;;32.62;29.16;98478.16;5052102;28;20037;-70
2021/09/19 08:42:55;;;;;;;1.90;1.70;;;;;;;32.71;28.39;98474.03;5071813;28;20029;-70
2021/09/19 08:45:22;;;;;;;1.58;1.48;;;;;;;32.23;28.86;98455.44;5071926;28;20078;-70
2021/09/19 08:47:51;;;;;;;1.90;1.40;;;;;;;33.30;28.25;98451.91;5067009;28;20036;-70
2021/09/19 08:50:17;;;;;;;1.92;1.67;;;;;;;33.01;27.81;98473.63;5065579;28;20032;-77
2021/09/19 08:52:43;;;;;;;2.20;1.67;;;;;;;33.26;27.75;98473.47;5062563;28;20020;-74
2021/09/19 08:55:09;;;;;;;4.65;1.90;;;;;;;33.54;28.00;98462.16;5052632;28;20496;-77
2021/09/19 08:57:35;;;;;;;2.00;1.42;;;;;;;32.66;29.11;98467.88;5065477;28;20093;-75
2021/09/19 09:00:05;;;;;;;2.05;1.23;;;;;;;33.82;27.99;98465.63;5047273;28;20016;-76
2021/09/19 09:02:46;;;;;;;2.38;1.60;;;;;;;33.82;27.89;98456.38;5069236;28;20033;-74
2021/09/19 09:05:19;;;;;;;2.50;1.70;;;;;;;33.81;27.38;98469.59;5053059;28;20083;-75
2021/09/19 09:07:45;;;;;;;1.45;1.33;;;;;;;34.48;26.72;98448.97;5070904;28;20063;-74
2021/09/19 09:10:10;;;;;;;1.63;1.40;;;;;;;35.38;26.30;98451.44;5072102;28;20048;-75
2021/09/19 09:12:36;;;;;;;2.85;1.83;;;;;;;33.89;27.56;98438.88;5071191;28;20068;-77
2021/09/19 09:15:04;;;;;;;1.90;1.73;;;;;;;34.91;26.83;98455.41;5053696;28;20028;-75
2021/09/19 09:17:29;;;;;;;1.67;1.33;;;;;;;34.73;26.54;98454.28;5069573;28;20030;-75
2021/09/19 09:20:03;;;;;;;3.33;1.70;;;;;;;34.12;26.51;98464.28;5051257;28;20020;-75
2021/09/19 09:22:32;;;;;;;2.72;1.92;;;;;;;34.30;27.64;98461.81;5071307;28;20113;-74
2021/09/19 09:25:15;;;;;;;2.63;1.80;;;;;;;33.88;28.03;98471.75;5066599;28;20028;-74
2021/09/19 09:27:49;;;;;;;2.45;1.70;;;;;;;34.03;27.48;98464.44;5066411;28;20028;-74
2021/09/19 09:30:18;;;;;;;1.92;1.50;;;;;;;34.30;26.77;98473.06;5063014;28;20035;-74
2021/09/19 09:32:54;;;;;;;2.00;1.80;;;;;;;34.66;27.38;98469.00;5070067;28;20024;-74
2021/09/19 09:35:21;;;;;;;2.33;1.48;;;;;;;34.48;27.47;98474.25;5068208;28;20103;-75
2021/09/19 09:37:47;;;;;;;2.10;1.90;;;;;;;34.77;26.80;98469.19;5070627;28;20040;-74
2021/09/19 09:40:19;;;;;;;1.70;1.50;;;;;;;35.09;25.73;98467.81;5070758;28;20047;-75
2021/09/19 09:43:20;;;;;;;3.35;2.10;;;;;;;30.28;32.20;98474.47;5069883;28;20036;-75
2021/09/19 09:45:48;;;;;;;2.47;2.17;;;;;;;28.98;34.84;98468.50;4988033;28;20235;-74
2021/09/19 09:48:31;;;;;;;2.22;2.03;;;;;;;29.03;35.77;98476.66;5050455;28;20040;-75
2021/09/19 09:50:59;;;;;;;2.45;1.77;;;;;;;32.09;31.04;98481.00;5070971;28;20044;-72
2021/09/19 09:53:25;;;;;;;2.20;2.00;;;;;;;32.91;29.08;98479.75;5069452;28;20479;-69
2021/09/19 09:55:52;;;;;;;4.00;2.60;;;;;;;31.88;29.93;98481.94;5068842;28;20120;-71
2021/09/19 09:58:20;;;;;;;2.75;2.22;;;;;;;32.40;30.20;98477.53;5066089;28;20033;-73
2021/09/19 10:00:47;;;;;;;2.33;1.80;;;;;;;34.05;27.48;98476.94;5066074;28;20024;-71
2021/09/19 10:03:13;;;;;;;3.10;1.67;;;;;;;34.85;27.02;98477.41;5067802;28;20427;-72
2021/09/19 10:05:40;;;;;;;4.55;1.67;;;;;;;35.37;25.99;98466.69;5067266;28;20074;-70
2021/09/19 10:08:05;;;;;;;2.20;1.73;;;;;;;35.15;26.77;98467.50;5049075;28;20064;-72
2021/09/19 10:10:38;;;;;;;2.60;1.98;;;;;;;35.50;25.94;98468.09;5049479;28;20055;-71
2021/09/19 10:13:04;;;;;;;1.90;1.60;;;;;;;35.83;25.98;98444.06;5066566;28;20056;-71
2021/09/19 10:15:30;;;;;;;2.28;1.92;;;;;;;35.02;26.81;98456.41;5067191;28;20048;-70
2021/09/19 10:17:56;;;;;;;2.42;1.80;;;;;;;35.20;26.94;98464.38;5069136;28;20627;-71
2021/09/19 10:20:29;;;;;;;2.17;1.70;;;;;;;35.47;26.25;98466.03;5071403;28;20028;-71
2021/09/19 10:23:09;;;;;;;2.10;1.90;;;;;;;32.80;29.74;98468.25;5069871;28;20566;-70
2021/09/19 10:25:35;;;;;;;2.28;2.08;;;;;;;33.72;29.21;98462.56;5065482;28;20070;-70
2021/09/19 10:28:23;;;;;;;3.30;2.53;;;;;;;33.68;28.58;98456.06;5064332;28;20025;-67
2021/09/19 10:31:18;;;;;;;2.87;2.20;;;;;;;34.43;27.98;98463.31;5070971;28;20033;-75
2021/09/19 10:33:53;;;;;;;3.08;2.15;;;;;;;34.50;28.02;98457.03;5067183;28;20381;-71
2021/09/19 10:36:22;;;;;;;2.80;2.03;;;;;;;34.97;27.21;98450.28;5069935;28;20032;-71
2021/09/19 10:38:48;;;;;;;2.30;2.08;;;;;;;35.12;27.14;98443.75;5071067;28;20033;-69
2021/09/19 10:41:19;;;;;;;2.28;2.08;;;;;;;35.25;27.44;98447.19;5070825;28;20024;-69
2021/09/19 10:43:55;;;;;;;3.95;1.90;;;;;;;34.80;27.44;98452.41;5069606;28;20051;-71
2021/09/19 10:46:36;;;;;;;3.47;2.22;;;;;;;34.78;28.21;98460.41;5068901;28;20020;-70
2021/09/19 10:49:11;;;;;;;2.20;1.90;;;;;;;35.82;26.73;98448.09;5068840;28;20029;-72
2021/09/19 10:52:01;;;;;;;2.50;2.05;;;;;;;35.64;26.69;98441.41;5066977;28;20040;-69
2021/09/19 10:54:42;;;;;;;2.50;1.95;;;;;;;35.83;26.33;98437.63;5061274;28;20024;-72
2021/09/19 10:57:33;;;;;;;2.13;1.92;;;;;;;34.86;27.66;98434.06;5068101;28;20028;-70
2021/09/19 11:00:08;;;;;;;3.67;2.25;;;;;;;35.04;27.69;98445.63;5070328;28;20033;-71
2021/09/19 11:02:35;;;;;;;2.55;2.10;;;;;;;34.94;27.67;98437.00;5069509;28;20029;-70
2021/09/19 11:05:26;;;;;;;2.40;2.13;;;;;;;35.60;27.06;98440.53;5070406;28;20064;-72
2021/09/19 11:08:07;;;;;;;2.55;2.05;;;;;;;34.30;28.38;98445.81;5057832;28;20024;-71
2021/09/19 11:10:33;;;;;;;4.47;1.90;;;;;;;34.12;28.86;98431.41;5062173;28;20032;-72
2021/09/19 11:13:27;;;;;;;2.15;1.95;;;;;;;35.24;27.34;98423.06;5070285;28;20032;-71
2021/09/19 11:16:02;;;;;;;2.13;1.60;;;;;;;36.60;25.70;98433.41;5069526;28;20020;-71
2021/09/19 11:18:34;;;;;;;3.05;1.70;;;;;;;36.29;26.14;98424.19;5059589;28;20029;-72
2021/09/19 11:21:15;;;;;;;3.35;1.70;;;;;;;35.02;27.56;98419.06;5069880;28;20055;-72
2021/09/19 11:24:05;;;;;;;4.00;2.25;;;;;;;34.46;27.50;98421.25;5067428;28;20031;-71
2021/09/19 11:26:45;;;;;;;3.10;1.90;;;;;;;33.52;29.47;98419.59;5068971;28;20478;-72
2021/09/19 11:29:14;;;;;;;2.20;1.92;;;;;;;33.72;29.46;98424.09;5067139;28;20032;-71
2021/09/19 11:31:42;;;;;;;2.75;2.05;;;;;;;34.56;28.45;98419.84;5066455;28;20024;-72
2021/09/19 11:34:11;;;;;;;2.10;1.90;;;;;;;34.41;28.47;98407.50;5069817;28;20036;-72
2021/09/19 11:36:42;;;;;;;2.83;2.05;;;;;;;34.57;28.75;98406.59;5069764;28;20078;-71
2021/09/19 11:39:07;;;;;;;5.93;2.60;;;;;;;33.98;28.17;98417.84;5068792;28;20799;-72